Time;durP1;ratioP1;P1;durP2;ratioP2;P2;SDS_P1;SDS_P2;PMS_P1;PMS_P2;Temp;Humidity;BMP_temperature;BMP_pressure;BME280_temperature;BME280_humidity;BME280_pressure;Samples;Min_cycle;Max_cycle;Signal;HPM_P1;HPM_P2
2022/12/28 00:00:31;;;;;;;2.58;1.20;;;;;;;;;;5026027;28;20634;-76
2022/12/28 00:03:00;;;;;;;1.98;1.30;;;;;;;;;;5026986;28;20033;-78
2022/12/28 00:05:26;;;;;;;1.67;1.10;;;;;;;;;;5032639;28;20060;-77
2022/12/28 00:07:52;;;;;;;0.93;0.90;;;;;;;;;;5029447;28;20362;-78
2022/12/28 00:10:21;;;;;;;1.25;1.00;;;;;;;;;;5026993;28;20025;-78
2022/12/28 00:12:47;;;;;;;2.40;1.35;;;;;;;;;;5027336;28;20279;-78
2022/12/28 00:15:13;;;;;;;1.42;1.15;;;;;;;;;;5027426;28;20037;-77
2022/12/28 00:17:39;;;;;;;2.20;1.50;;;;;;;;;;5028821;28;20029;-77
2022/12/28 00:20:05;;;;;;;1.23;1.13;;;;;;;;;;5028621;28;20428;-77
2022/12/28 00:22:31;;;;;;;1.98;1.30;;;;;;;;;;5027723;28;20461;-77
2022/12/28 00:24:57;;;;;;;2.00;1.10;;;;;;;;;;5027683;28;20036;-77
2022/12/28 00:27:23;;;;;;;1.60;1.00;;;;;;;;;;5025425;28;20025;-77
2022/12/28 00:29:49;;;;;;;1.88;1.20;;;;;;;;;;5025232;28;20029;-77
2022/12/28 00:32:15;;;;;;;1.58;1.00;;;;;;;;;;5027992;28;20033;-77
2022/12/28 00:34:41;;;;;;;1.20;0.93;;;;;;;;;;5027221;28;20029;-77
2022/12/28 00:37:07;;;;;;;1.15;1.02;;;;;;;;;;5027840;28;20037;-77
2022/12/28 00:39:36;;;;;;;2.22;1.30;;;;;;;;;;5037660;28;20036;-77
2022/12/28 00:42:02;;;;;;;1.45;1.00;;;;;;;;;;5026348;28;20047;-77
2022/12/28 00:44:28;;;;;;;2.17;1.10;;;;;;;;;;5026434;28;20135;-76
2022/12/28 00:46:54;;;;;;;1.92;1.30;;;;;;;;;;5026795;28;20075;-76
2022/12/28 00:49:20;;;;;;;1.75;1.10;;;;;;;;;;5029271;28;20026;-76
2022/12/28 00:51:46;;;;;;;1.10;0.80;;;;;;;;;;5026966;28;20116;-76
2022/12/28 00:54:12;;;;;;;2.63;1.25;;;;;;;;;;5026827;28;20055;-76
2022/12/28 00:56:41;;;;;;;3.50;1.15;;;;;;;;;;5029990;28;20025;-75
2022/12/28 00:59:07;;;;;;;1.33;0.88;;;;;;;;;;5028116;28;20041;-76
2022/12/28 01:01:33;;;;;;;1.50;0.90;;;;;;;;;;5025092;28;20044;-76
2022/12/28 01:03:59;;;;;;;1.55;0.90;;;;;;;;;;5027141;28;20039;-77
2022/12/28 01:06:26;;;;;;;1.60;1.20;;;;;;;;;;5027332;28;20029;-76
2022/12/28 01:08:55;;;;;;;1.45;1.00;;;;;;;;;;5027290;28;20163;-77
2022/12/28 01:11:22;;;;;;;1.50;0.93;;;;;;;;;;5026808;28;20028;-76
2022/12/28 01:13:49;;;;;;;1.90;1.15;;;;;;;;;;5025029;28;20042;-76
2022/12/28 01:16:15;;;;;;;2.05;0.98;;;;;;;;;;5027736;28;20025;-77
2022/12/28 01:18:40;;;;;;;1.63;1.00;;;;;;;;;;5023835;28;20021;-77
2022/12/28 01:21:11;;;;;;;1.23;0.93;;;;;;;;;;5026663;28;20109;-78
2022/12/28 01:23:37;;;;;;;1.00;0.85;;;;;;;;;;5027506;28;20049;-77
2022/12/28 01:26:03;;;;;;;1.63;1.10;;;;;;;;;;5027939;28;20026;-77
2022/12/28 01:28:29;;;;;;;2.83;1.10;;;;;;;;;;5026915;28;20033;-77
2022/12/28 01:30:55;;;;;;;1.08;0.80;;;;;;;;;;5024984;28;20075;-77
2022/12/28 01:33:21;;;;;;;0.98;0.85;;;;;;;;;;5027833;28;20512;-77
2022/12/28 01:35:47;;;;;;;1.45;1.10;;;;;;;;;;5026024;28;20539;-77
2022/12/28 01:38:13;;;;;;;1.83;1.00;;;;;;;;;;5029949;28;20028;-77
2022/12/28 01:40:42;;;;;;;1.48;1.05;;;;;;;;;;5033345;28;20030;-77
2022/12/28 01:43:15;;;;;;;0.80;0.80;;;;;;;;;;5029147;28;20029;-76
2022/12/28 01:45:41;;;;;;;0.98;0.90;;;;;;;;;;5029331;28;20025;-76
2022/12/28 01:48:16;;;;;;;1.50;1.02;;;;;;;;;;5032453;28;20075;-76
2022/12/28 01:50:43;;;;;;;1.27;0.90;;;;;;;;;;5027814;28;20480;-76
2022/12/28 01:53:09;;;;;;;1.13;1.02;;;;;;;;;;5027940;28;20510;-77
2022/12/28 01:55:36;;;;;;;1.10;0.85;;;;;;;;;;5028069;28;20026;-75
2022/12/28 01:58:07;;;;;;;1.90;1.23;;;;;;;;;;5035595;28;20472;-76
2022/12/28 02:00:34;;;;;;;1.38;0.90;;;;;;;;;;5033578;28;20033;-77
2022/12/28 02:03:02;;;;;;;0.80;0.80;;;;;;;;;;5027364;28;20033;-77
2022/12/28 02:05:29;;;;;;;1.65;0.95;;;;;;;;;;5030670;28;20457;-77
2022/12/28 02:08:03;;;;;;;1.08;0.90;;;;;;;;;;5025507;28;20030;-76
2022/12/28 02:10:29;;;;;;;1.85;0.73;;;;;;;;;;5023058;28;20286;-76
2022/12/28 02:12:56;;;;;;;3.25;1.08;;;;;;;;;;5028657;28;20415;-76
2022/12/28 02:15:22;;;;;;;3.17;0.95;;;;;;;;;;5029160;28;20029;-76
2022/12/28 02:17:48;;;;;;;1.02;0.85;;;;;;;;;;5029670;28;20029;-77
2022/12/28 02:20:16;;;;;;;1.52;0.93;;;;;;;;;;5027735;28;20496;-77
2022/12/28 02:23:01;;;;;;;1.33;0.90;;;;;;;;;;5032130;28;20488;-77
2022/12/28 02:25:42;;;;;;;1.00;0.80;;;;;;;;;;5028443;28;20258;-77
2022/12/28 02:28:23;;;;;;;1.17;0.85;;;;;;;;;;5026814;28;20032;-78
2022/12/28 02:30:59;;;;;;;1.10;1.00;;;;;;;;;;5028368;28;20627;-77
2022/12/28 02:33:44;;;;;;;1.33;1.00;;;;;;;;;;4996096;28;998175;-77
2022/12/28 02:36:22;;;;;;;1.20;0.80;;;;;;;;;;5030297;28;20033;-78
2022/12/28 02:38:52;;;;;;;1.05;0.90;;;;;;;;;;5030852;28;20044;-78
2022/12/28 02:41:20;;;;;;;0.93;0.75;;;;;;;;;;5028438;28;20013;-77
2022/12/28 02:43:46;;;;;;;0.80;0.80;;;;;;;;;;5027830;28;20029;-78
2022/12/28 02:52:31;;;;;;;1.17;0.95;;;;;;;;;;5025368;28;20166;-77
2022/12/28 02:58:16;;;;;;;0.80;0.80;;;;;;;;;;5021500;28;20040;-76
2022/12/28 03:00:42;;;;;;;2.75;1.10;;;;;;;;;;5028092;28;20021;-77
2022/12/28 03:03:20;;;;;;;1.15;0.80;;;;;;;;;;5030070;28;20040;-78
2022/12/28 03:08:59;;;;;;;1.92;0.85;;;;;;;;;;5029599;28;20096;-78
2022/12/28 03:11:36;;;;;;;0.93;0.88;;;;;;;;;;5027992;28;20034;-77
2022/12/28 03:14:05;;;;;;;2.97;0.90;;;;;;;;;;5030013;28;20095;-77
2022/12/28 03:25:41;;;;;;;1.08;0.70;;;;;;;;;;5022442;28;20523;-77
2022/12/28 03:33:07;;;;;;;1.25;1.00;;;;;;;;;;5028662;28;20060;-78
2022/12/28 03:35:45;;;;;;;1.60;0.90;;;;;;;;;;5037695;28;20105;-78
2022/12/28 03:38:25;;;;;;;1.30;0.80;;;;;;;;;;5028373;28;20031;-78
2022/12/28 03:40:52;;;;;;;1.58;0.90;;;;;;;;;;5027075;28;20034;-78
2022/12/28 03:43:38;;;;;;;1.83;1.02;;;;;;;;;;5028186;28;20025;-78
2022/12/28 03:46:10;;;;;;;0.93;0.93;;;;;;;;;;5032172;28;20052;-78
2022/12/28 03:48:37;;;;;;;1.17;0.70;;;;;;;;;;5028745;28;20167;-78
2022/12/28 03:51:03;;;;;;;2.03;1.00;;;;;;;;;;5029522;28;20030;-76
2022/12/28 03:53:40;;;;;;;0.95;0.88;;;;;;;;;;5029304;28;20033;-77
2022/12/28 03:56:13;;;;;;;1.48;0.90;;;;;;;;;;5025630;28;20060;-78
2022/12/28 03:58:39;;;;;;;0.60;0.60;;;;;;;;;;5031321;28;20052;-78
2022/12/28 04:01:05;;;;;;;1.45;0.75;;;;;;;;;;5027533;28;20483;-77
2022/12/28 04:03:32;;;;;;;1.85;0.80;;;;;;;;;;5033509;28;20065;-78
2022/12/28 04:05:58;;;;;;;1.77;0.73;;;;;;;;;;5026031;28;20136;-78
2022/12/28 04:08:24;;;;;;;0.60;0.57;;;;;;;;;;5034978;28;20492;-78
2022/12/28 04:10:50;;;;;;;1.25;0.90;;;;;;;;;;5029582;28;20026;-78
2022/12/28 04:13:16;;;;;;;2.25;0.75;;;;;;;;;;5024370;28;20104;-77
2022/12/28 04:15:42;;;;;;;1.10;1.00;;;;;;;;;;5032843;28;20041;-78
2022/12/28 04:18:08;;;;;;;0.85;0.80;;;;;;;;;;5026509;28;21040;-77
2022/12/28 04:20:34;;;;;;;1.45;0.88;;;;;;;;;;5037477;28;20053;-78
2022/12/28 04:23:00;;;;;;;1.17;0.80;;;;;;;;;;5026912;28;20021;-77
2022/12/28 04:25:26;;;;;;;1.00;0.90;;;;;;;;;;5032433;28;20029;-77
2022/12/28 04:27:52;;;;;;;4.75;0.85;;;;;;;;;;5027904;28;20165;-78
2022/12/28 04:30:18;;;;;;;0.95;0.70;;;;;;;;;;5027395;28;20036;-77
2022/12/28 04:32:44;;;;;;;0.85;0.70;;;;;;;;;;5026651;28;20500;-76
2022/12/28 04:35:10;;;;;;;1.92;0.85;;;;;;;;;;5031948;28;20428;-76
2022/12/28 04:37:36;;;;;;;0.55;0.55;;;;;;;;;;5028460;28;20104;-76
2022/12/28 04:40:02;;;;;;;1.77;1.08;;;;;;;;;;5026750;28;20037;-77
2022/12/28 04:42:28;;;;;;;1.52;0.90;;;;;;;;;;5027457;28;20775;-77
2022/12/28 04:44:54;;;;;;;0.77;0.77;;;;;;;;;;5032156;28;20033;-77
2022/12/28 04:47:20;;;;;;;2.42;0.80;;;;;;;;;;5034185;28;20538;-76
2022/12/28 04:49:46;;;;;;;0.60;0.60;;;;;;;;;;5031461;28;20060;-76
2022/12/28 04:52:12;;;;;;;0.85;0.70;;;;;;;;;;5026619;28;20029;-77
2022/12/28 04:54:38;;;;;;;0.98;0.88;;;;;;;;;;5032416;28;20108;-77
2022/12/28 04:57:05;;;;;;;1.25;0.90;;;;;;;;;;5028929;28;20553;-77
2022/12/28 04:59:40;;;;;;;0.80;0.80;;;;;;;;;;5022753;28;20103;-77
2022/12/28 05:02:06;;;;;;;0.70;0.70;;;;;;;;;;5022172;28;20051;-77
2022/12/28 05:04:32;;;;;;;0.68;0.60;;;;;;;;;;5028690;28;20141;-77
2022/12/28 05:06:58;;;;;;;0.52;0.52;;;;;;;;;;5028749;28;20104;-77
2022/12/28 05:09:24;;;;;;;1.60;0.80;;;;;;;;;;5029126;28;20037;-77
2022/12/28 05:11:50;;;;;;;1.13;0.85;;;;;;;;;;5026333;28;20037;-76
2022/12/28 05:14:16;;;;;;;0.68;0.68;;;;;;;;;;5025332;28;20032;-77
2022/12/28 05:16:42;;;;;;;1.35;0.75;;;;;;;;;;5027329;28;20037;-77
2022/12/28 05:19:08;;;;;;;4.43;0.93;;;;;;;;;;5027619;28;20511;-77
2022/12/28 05:21:34;;;;;;;1.00;0.90;;;;;;;;;;5027674;28;20067;-76
2022/12/28 05:24:00;;;;;;;4.88;0.90;;;;;;;;;;5024108;28;20057;-76
2022/12/28 05:26:27;;;;;;;1.40;1.00;;;;;;;;;;5024554;28;20025;-76
2022/12/28 05:28:54;;;;;;;1.55;0.90;;;;;;;;;;5027850;28;20476;-77
2022/12/28 05:31:21;;;;;;;4.70;0.80;;;;;;;;;;5038442;28;20030;-76
2022/12/28 05:33:48;;;;;;;1.20;0.90;;;;;;;;;;5035043;28;20706;-77
2022/12/28 05:36:15;;;;;;;0.80;0.70;;;;;;;;;;5028547;28;20021;-78
2022/12/28 05:38:41;;;;;;;1.25;0.65;;;;;;;;;;5028517;28;20499;-77
2022/12/28 05:41:15;;;;;;;0.65;0.60;;;;;;;;;;5026621;28;20025;-77
2022/12/28 05:43:41;;;;;;;1.00;0.70;;;;;;;;;;5025266;28;20036;-77
2022/12/28 05:46:09;;;;;;;1.25;0.85;;;;;;;;;;5031786;28;20061;-79
2022/12/28 05:48:36;;;;;;;1.63;0.80;;;;;;;;;;5026646;28;20025;-78
2022/12/28 05:51:03;;;;;;;1.30;0.65;;;;;;;;;;5026371;28;20645;-78
2022/12/28 05:53:30;;;;;;;0.52;0.52;;;;;;;;;;5022400;28;20342;-78
2022/12/28 05:56:06;;;;;;;0.90;0.80;;;;;;;;;;5025825;28;20109;-77
2022/12/28 05:58:32;;;;;;;1.42;0.73;;;;;;;;;;5024780;28;20067;-79
2022/12/28 06:01:05;;;;;;;0.68;0.68;;;;;;;;;;5026489;28;20041;-79
2022/12/28 06:03:31;;;;;;;0.80;0.70;;;;;;;;;;5026343;28;20109;-78
2022/12/28 06:05:57;;;;;;;0.70;0.70;;;;;;;;;;5025775;28;20037;-78
2022/12/28 06:08:23;;;;;;;0.50;0.50;;;;;;;;;;5026657;28;20052;-78
2022/12/28 06:10:49;;;;;;;1.17;0.73;;;;;;;;;;5026862;28;20026;-78
2022/12/28 06:13:15;;;;;;;1.15;0.70;;;;;;;;;;5024749;28;20484;-78
2022/12/28 06:15:41;;;;;;;0.73;0.68;;;;;;;;;;5023144;28;20414;-78
2022/12/28 06:18:07;;;;;;;1.08;0.60;;;;;;;;;;5027642;28;20439;-78
2022/12/28 06:20:33;;;;;;;0.60;0.60;;;;;;;;;;5032977;28;20037;-77
2022/12/28 06:22:59;;;;;;;2.00;0.85;;;;;;;;;;5024842;28;20040;-78
2022/12/28 06:25:25;;;;;;;0.77;0.77;;;;;;;;;;5030241;28;20453;-78
2022/12/28 06:27:50;;;;;;;0.68;0.68;;;;;;;;;;5024377;28;20370;-77
2022/12/28 06:30:16;;;;;;;0.73;0.70;;;;;;;;;;5030595;28;20021;-77
2022/12/28 06:32:42;;;;;;;1.25;0.60;;;;;;;;;;5030242;28;20107;-77
2022/12/28 06:35:08;;;;;;;1.17;0.65;;;;;;;;;;5030541;28;20045;-77
2022/12/28 06:37:34;;;;;;;2.20;0.60;;;;;;;;;;5030703;28;20138;-78
2022/12/28 06:40:00;;;;;;;0.68;0.68;;;;;;;;;;5029279;28;20017;-77
2022/12/28 06:42:26;;;;;;;1.55;0.80;;;;;;;;;;5030429;28;20041;-78
2022/12/28 06:44:52;;;;;;;0.77;0.70;;;;;;;;;;5028349;28;20025;-78
2022/12/28 06:47:18;;;;;;;0.77;0.77;;;;;;;;;;5027306;28;20476;-78
2022/12/28 06:49:44;;;;;;;1.25;0.73;;;;;;;;;;5026849;28;20029;-72
2022/12/28 06:52:10;;;;;;;2.05;0.95;;;;;;;;;;5029809;28;20044;-72
2022/12/28 06:54:36;;;;;;;0.75;0.50;;;;;;;;;;5043082;28;20029;-72
2022/12/28 06:57:02;;;;;;;0.70;0.70;;;;;;;;;;5030476;28;20037;-72
2022/12/28 06:59:28;;;;;;;0.68;0.68;;;;;;;;;;5031008;28;20029;-72
2022/12/28 07:01:54;;;;;;;0.85;0.60;;;;;;;;;;5029448;28;20030;-71
2022/12/28 07:04:20;;;;;;;1.13;0.70;;;;;;;;;;5027395;28;20025;-75
2022/12/28 07:06:46;;;;;;;0.50;0.50;;;;;;;;;;5030761;28;20084;-83
2022/12/28 07:09:14;;;;;;;1.13;1.02;;;;;;;;;;5028331;28;20025;-76
2022/12/28 07:11:40;;;;;;;0.55;0.55;;;;;;;;;;5029312;28;20460;-76
2022/12/28 07:14:06;;;;;;;0.73;0.70;;;;;;;;;;5030074;28;20021;-75
2022/12/28 07:16:32;;;;;;;1.15;0.80;;;;;;;;;;5030774;28;20033;-76
2022/12/28 07:18:59;;;;;;;0.45;0.45;;;;;;;;;;5029980;28;20526;-76
2022/12/28 07:21:26;;;;;;;1.92;0.60;;;;;;;;;;5030646;28;20388;-76
2022/12/28 07:23:53;;;;;;;0.82;0.60;;;;;;;;;;5023553;28;20530;-74
2022/12/28 07:26:20;;;;;;;0.50;0.50;;;;;;;;;;5021236;28;20029;-79
2022/12/28 07:28:47;;;;;;;0.60;0.60;;;;;;;;;;5030882;28;20036;-79
2022/12/28 07:31:23;;;;;;;0.65;0.50;;;;;;;;;;5024730;28;20033;-79
2022/12/28 07:33:50;;;;;;;3.50;0.60;;;;;;;;;;5021503;28;20059;-78
2022/12/28 07:36:17;;;;;;;1.67;0.77;;;;;;;;;;5021604;28;20177;-78
2022/12/28 07:38:44;;;;;;;1.52;0.50;;;;;;;;;;5019865;28;20484;-79
2022/12/28 07:41:31;;;;;;;1.73;0.75;;;;;;;;;;5026197;28;20065;-80
2022/12/28 07:47:02;;;;;;;0.60;0.50;;;;;;;;;;5015861;28;20068;-79
2022/12/28 07:49:28;;;;;;;1.88;0.82;;;;;;;;;;5024129;28;20037;-79
2022/12/28 07:51:54;;;;;;;1.98;0.85;;;;;;;;;;5026902;28;20053;-79
2022/12/28 07:54:20;;;;;;;2.95;0.63;;;;;;;;;;5023885;28;20076;-80
2022/12/28 07:56:46;;;;;;;1.80;0.70;;;;;;;;;;5024772;28;20116;-80
2022/12/28 07:59:12;;;;;;;1.40;0.55;;;;;;;;;;5025598;28;20028;-80
2022/12/28 08:01:38;;;;;;;1.23;0.70;;;;;;;;;;5027078;28;20033;-79
2022/12/28 08:04:05;;;;;;;3.72;0.73;;;;;;;;;;5027365;28;20033;-79
2022/12/28 08:06:33;;;;;;;3.30;0.73;;;;;;;;;;5025000;28;20049;-78
2022/12/28 08:09:00;;;;;;;2.75;0.75;;;;;;;;;;5020362;28;20702;-79
2022/12/28 08:11:27;;;;;;;1.80;0.60;;;;;;;;;;5020343;28;20033;-80
2022/12/28 08:13:56;;;;;;;0.50;0.50;;;;;;;;;;5021294;28;20034;-80
2022/12/28 08:16:26;;;;;;;0.70;0.57;;;;;;;;;;5021871;28;20025;-80
2022/12/28 08:18:52;;;;;;;2.38;0.60;;;;;;;;;;5027137;28;20429;-80
2022/12/28 08:21:20;;;;;;;3.13;0.55;;;;;;;;;;5023271;28;20026;-78
2022/12/28 08:23:46;;;;;;;1.73;0.63;;;;;;;;;;5024855;28;20445;-78
2022/12/28 08:26:14;;;;;;;1.48;0.70;;;;;;;;;;5024354;28;20021;-79
2022/12/28 08:28:40;;;;;;;1.85;1.02;;;;;;;;;;5027833;28;20068;-79
2022/12/28 08:31:11;;;;;;;8.88;0.90;;;;;;;;;;5025445;28;20029;-77
2022/12/28 08:33:39;;;;;;;1.90;0.70;;;;;;;;;;5029781;28;20043;-82
2022/12/28 08:36:06;;;;;;;3.40;0.60;;;;;;;;;;5029026;28;20182;-76
2022/12/28 08:38:32;;;;;;;1.05;0.70;;;;;;;;;;5024312;28;20025;-80
2022/12/28 08:40:59;;;;;;;3.50;0.80;;;;;;;;;;5034051;28;20086;-78
2022/12/28 08:43:26;;;;;;;1.38;0.98;;;;;;;;;;5026022;28;20029;-79
2022/12/28 08:45:59;;;;;;;1.95;0.65;;;;;;;;;;5030199;28;20478;-77
2022/12/28 08:48:25;;;;;;;1.05;0.63;;;;;;;;;;5024574;28;20083;-78
2022/12/28 08:50:51;;;;;;;2.17;0.77;;;;;;;;;;5028446;28;20025;-79
2022/12/28 08:53:17;;;;;;;0.65;0.60;;;;;;;;;;5031388;28;20545;-79
2022/12/28 08:55:43;;;;;;;2.65;0.73;;;;;;;;;;5030711;28;20037;-78
2022/12/28 08:58:09;;;;;;;1.00;0.70;;;;;;;;;;5028007;28;20061;-77
2022/12/28 09:00:35;;;;;;;5.20;0.88;;;;;;;;;;5033577;28;20044;-79
2022/12/28 09:03:01;;;;;;;0.77;0.60;;;;;;;;;;5023264;28;20033;-80
2022/12/28 09:05:27;;;;;;;2.35;0.80;;;;;;;;;;5030924;28;20025;-77
2022/12/28 09:07:53;;;;;;;0.50;0.50;;;;;;;;;;5031940;28;20028;-79
2022/12/28 09:10:19;;;;;;;1.30;0.65;;;;;;;;;;5020915;28;20055;-79
2022/12/28 09:12:45;;;;;;;2.50;1.02;;;;;;;;;;5026343;28;20037;-79
2022/12/28 09:15:11;;;;;;;1.45;0.75;;;;;;;;;;5031399;28;20029;-78
2022/12/28 09:17:37;;;;;;;0.68;0.60;;;;;;;;;;5027518;28;20029;-78
2022/12/28 09:20:03;;;;;;;2.25;1.33;;;;;;;;;;5030053;28;20373;-78
2022/12/28 09:22:30;;;;;;;0.55;0.55;;;;;;;;;;5025214;28;20061;-81
2022/12/28 09:24:56;;;;;;;1.08;0.70;;;;;;;;;;5028412;28;20029;-76
2022/12/28 09:27:22;;;;;;;0.70;0.60;;;;;;;;;;5023189;28;20033;-79
2022/12/28 09:29:48;;;;;;;0.73;0.63;;;;;;;;;;5028066;28;20029;-75
2022/12/28 09:32:14;;;;;;;0.60;0.60;;;;;;;;;;5027949;28;20041;-78
2022/12/28 09:34:40;;;;;;;0.80;0.75;;;;;;;;;;5027511;28;20103;-78
2022/12/28 09:37:07;;;;;;;1.15;0.90;;;;;;;;;;5027208;28;20645;-78
2022/12/28 09:39:33;;;;;;;1.50;0.77;;;;;;;;;;5029742;28;20033;-78
2022/12/28 09:42:01;;;;;;;1.25;0.85;;;;;;;;;;5035857;28;20036;-78
2022/12/28 09:44:41;;;;;;;2.10;0.60;;;;;;;;;;5031742;28;20566;-78
2022/12/28 09:47:25;;;;;;;0.60;0.60;;;;;;;;;;5028063;28;20021;-78
2022/12/28 09:49:58;;;;;;;1.30;0.70;;;;;;;;;;5026562;28;20473;-77
2022/12/28 09:52:29;;;;;;;1.50;0.70;;;;;;;;;;5018928;28;20052;-76
2022/12/28 09:54:57;;;;;;;1.63;0.90;;;;;;;;;;5023233;28;20433;-75
2022/12/28 09:57:23;;;;;;;1.00;0.60;;;;;;;;;;5026190;28;20388;-75
2022/12/28 09:59:51;;;;;;;1.58;0.75;;;;;;;;;;5029015;28;20030;-76
2022/12/28 10:02:22;;;;;;;4.40;0.90;;;;;;;;;;5026943;28;20033;-76
2022/12/28 10:04:49;;;;;;;1.08;0.60;;;;;;;;;;5040583;28;20581;-76
2022/12/28 10:07:16;;;;;;;1.15;0.70;;;;;;;;;;5028843;28;20033;-75
2022/12/28 10:09:42;;;;;;;0.60;0.60;;;;;;;;;;5027875;28;20025;-83
2022/12/28 10:12:13;;;;;;;0.60;0.60;;;;;;;;;;5026601;28;20587;-78
2022/12/28 10:14:40;;;;;;;;;;;;;;;;;;5026201;28;20109;-76
2022/12/28 10:17:08;;;;;;;0.65;0.60;;;;;;;;;;5034996;28;19920;-77
2022/12/28 10:19:34;;;;;;;0.98;0.75;;;;;;;;;;5030551;28;20100;-76
2022/12/28 10:22:01;;;;;;;0.82;0.73;;;;;;;;;;5031948;28;20029;-76
2022/12/28 10:24:28;;;;;;;1.25;0.82;;;;;;;;;;5030648;28;20484;-76
2022/12/28 10:26:55;;;;;;;1.85;0.60;;;;;;;;;;5029955;28;20117;-76
2022/12/28 10:29:22;;;;;;;0.70;0.60;;;;;;;;;;5031858;28;20488;-77
2022/12/28 10:31:57;;;;;;;1.17;0.73;;;;;;;;;;5035116;28;20239;-77
2022/12/28 10:34:24;;;;;;;2.35;0.88;;;;;;;;;;5032469;28;20124;-74
2022/12/28 10:36:58;;;;;;;1.10;0.77;;;;;;;;;;5029709;28;20025;-76
2022/12/28 10:39:26;;;;;;;0.88;0.80;;;;;;;;;;5030295;28;20099;-77
2022/12/28 10:41:53;;;;;;;1.55;0.90;;;;;;;;;;5029034;28;20045;-78
2022/12/28 10:44:25;;;;;;;4.70;0.80;;;;;;;;;;5038358;28;20058;-78
2022/12/28 10:46:53;;;;;;;0.50;0.50;;;;;;;;;;5026648;28;20056;-78
2022/12/28 10:49:19;;;;;;;2.05;0.50;;;;;;;;;;5039076;28;20040;-78
2022/12/28 10:51:58;;;;;;;2.08;0.80;;;;;;;;;;5029373;28;20034;-77
2022/12/28 10:54:24;;;;;;;1.08;0.70;;;;;;;;;;5034457;28;20029;-85
2022/12/28 10:56:50;;;;;;;0.63;0.63;;;;;;;;;;5019645;28;20033;-86
2022/12/28 10:59:27;;;;;;;1.75;0.70;;;;;;;;;;5046119;28;20018;-87
2022/12/28 11:01:55;;;;;;;0.60;0.60;;;;;;;;;;5027801;28;20120;-87
2022/12/28 11:04:22;;;;;;;2.60;0.77;;;;;;;;;;5022841;28;20030;-87
2022/12/28 11:06:55;;;;;;;0.88;0.60;;;;;;;;;;5030545;28;20430;-79
2022/12/28 11:09:21;;;;;;;0.90;0.70;;;;;;;;;;5027764;28;20032;-80
2022/12/28 11:11:48;;;;;;;0.88;0.52;;;;;;;;;;5026860;28;20017;-81
2022/12/28 11:14:40;;;;;;;1.15;0.70;;;;;;;;;;5036139;28;20039;-80
2022/12/28 11:17:17;;;;;;;1.67;0.68;;;;;;;;;;5028794;28;20029;-79
2022/12/28 11:19:44;;;;;;;3.42;0.80;;;;;;;;;;5029294;28;20025;-79
2022/12/28 11:22:11;;;;;;;1.25;0.95;;;;;;;;;;5042076;28;20112;-78
2022/12/28 11:24:38;;;;;;;0.82;0.68;;;;;;;;;;5030715;28;20052;-79
2022/12/28 11:27:04;;;;;;;1.35;0.85;;;;;;;;;;5029385;28;20444;-78
2022/12/28 11:29:30;;;;;;;0.80;0.70;;;;;;;;;;5029068;28;20112;-78
2022/12/28 11:32:00;;;;;;;0.80;0.80;;;;;;;;;;5034987;28;20034;-79
2022/12/28 11:34:27;;;;;;;1.25;0.70;;;;;;;;;;5030394;28;20754;-78
2022/12/28 11:36:53;;;;;;;1.27;0.73;;;;;;;;;;5030445;28;20026;-79
2022/12/28 11:39:25;;;;;;;0.85;0.77;;;;;;;;;;5029434;28;20036;-78
2022/12/28 11:41:52;;;;;;;0.73;0.70;;;;;;;;;;5036568;28;20038;-78
2022/12/28 11:44:22;;;;;;;3.50;0.77;;;;;;;;;;5029030;28;20041;-78
2022/12/28 11:47:18;;;;;;;2.85;0.60;;;;;;;;;;5029929;28;20013;-77
2022/12/28 11:49:46;;;;;;;1.33;0.70;;;;;;;;;;5030010;28;20327;-78
2022/12/28 11:52:33;;;;;;;1.73;0.70;;;;;;;;;;5028282;28;20392;-78
2022/12/28 11:55:00;;;;;;;1.63;0.80;;;;;;;;;;5030341;28;20025;-78
2022/12/28 11:57:52;;;;;;;1.00;0.63;;;;;;;;;;5030038;28;20175;-78
2022/12/28 12:00:18;;;;;;;1.10;0.65;;;;;;;;;;5026235;28;20519;-79
2022/12/28 12:02:55;;;;;;;1.45;0.60;;;;;;;;;;5029747;28;20041;-78
2022/12/28 12:05:36;;;;;;;1.67;0.70;;;;;;;;;;5033467;28;20025;-78
2022/12/28 12:08:03;;;;;;;1.52;0.85;;;;;;;;;;5020439;28;20033;-78
2022/12/28 12:10:32;;;;;;;0.73;0.70;;;;;;;;;;5028807;28;20308;-78
2022/12/28 12:12:58;;;;;;;0.85;0.70;;;;;;;;;;5029725;28;20030;-78
2022/12/28 12:15:32;;;;;;;0.50;0.50;;;;;;;;;;5034391;28;20029;-78
2022/12/28 12:18:02;;;;;;;1.38;0.77;;;;;;;;;;5033687;28;20084;-78
2022/12/28 12:20:33;;;;;;;1.10;0.75;;;;;;;;;;5028785;28;20087;-79
2022/12/28 12:22:59;;;;;;;;;;;;;;;;;;5029649;28;20075;-78
2022/12/28 12:25:34;;;;;;;0.70;0.63;;;;;;;;;;5031898;28;20479;-78
2022/12/28 12:28:10;;;;;;;0.98;0.65;;;;;;;;;;5031974;28;20030;-79
2022/12/28 12:30:36;;;;;;;1.33;0.73;;;;;;;;;;5032799;28;20087;-79
2022/12/28 12:33:04;;;;;;;0.90;0.63;;;;;;;;;;5034620;28;20414;-79
2022/12/28 12:35:34;;;;;;;0.65;0.60;;;;;;;;;;5027931;28;20472;-79
2022/12/28 12:38:06;;;;;;;0.90;0.90;;;;;;;;;;5028933;28;20036;-80
2022/12/28 12:40:41;;;;;;;1.25;0.70;;;;;;;;;;5028671;28;20017;-79
2022/12/28 12:43:21;;;;;;;0.75;0.60;;;;;;;;;;5035033;28;20076;-79
2022/12/28 12:46:13;;;;;;;0.98;0.52;;;;;;;;;;5028916;28;20014;-79
2022/12/28 12:48:50;;;;;;;0.70;0.70;;;;;;;;;;5027433;28;20116;-79
2022/12/28 12:51:35;;;;;;;0.82;0.60;;;;;;;;;;5028629;28;20021;-79
2022/12/28 12:54:01;;;;;;;4.85;0.70;;;;;;;;;;5045117;28;20041;-79
2022/12/28 12:56:36;;;;;;;1.00;0.75;;;;;;;;;;5028833;28;20022;-79
2022/12/28 12:59:24;;;;;;;0.65;0.63;;;;;;;;;;5030877;28;20037;-79
2022/12/28 13:02:09;;;;;;;1.55;0.65;;;;;;;;;;5028605;28;20040;-79
2022/12/28 13:04:35;;;;;;;2.40;0.60;;;;;;;;;;5027816;28;20117;-79
2022/12/28 13:07:03;;;;;;;1.17;0.65;;;;;;;;;;5028664;28;20366;-79
2022/12/28 13:09:30;;;;;;;0.90;0.70;;;;;;;;;;5029080;28;20021;-79
2022/12/28 13:11:56;;;;;;;0.60;0.55;;;;;;;;;;5028205;28;20105;-79
2022/12/28 13:14:23;;;;;;;0.35;0.35;;;;;;;;;;5027822;28;20489;-79
2022/12/28 13:16:57;;;;;;;0.45;0.45;;;;;;;;;;5027653;28;20014;-80
2022/12/28 13:19:25;;;;;;;1.23;0.70;;;;;;;;;;5025691;28;20664;-79
2022/12/28 13:21:51;;;;;;;0.68;0.63;;;;;;;;;;5035906;28;20084;-79
2022/12/28 13:24:20;;;;;;;1.00;0.60;;;;;;;;;;5034526;28;20021;-80
2022/12/28 13:26:46;;;;;;;0.57;0.57;;;;;;;;;;5029211;28;20076;-79
2022/12/28 13:29:15;;;;;;;0.63;0.60;;;;;;;;;;5026288;28;20546;-79
2022/12/28 13:31:48;;;;;;;0.65;0.63;;;;;;;;;;5028584;28;20070;-79
2022/12/28 13:34:17;;;;;;;0.70;0.60;;;;;;;;;;5032131;28;20578;-79
2022/12/28 13:36:53;;;;;;;0.82;0.68;;;;;;;;;;5033675;28;20530;-79
2022/12/28 13:39:19;;;;;;;0.43;0.43;;;;;;;;;;5034181;28;20496;-79
2022/12/28 13:41:48;;;;;;;0.85;0.57;;;;;;;;;;5032660;28;20022;-79
2022/12/28 13:44:18;;;;;;;0.57;0.57;;;;;;;;;;5031121;28;20021;-79
2022/12/28 13:46:45;;;;;;;1.08;0.60;;;;;;;;;;5036729;28;20487;-79
2022/12/28 13:49:12;;;;;;;1.23;0.60;;;;;;;;;;5036025;28;20071;-79
2022/12/28 13:51:38;;;;;;;1.15;0.73;;;;;;;;;;5032406;28;20468;-79
2022/12/28 13:54:06;;;;;;;0.50;0.43;;;;;;;;;;5032619;28;20476;-79
2022/12/28 13:56:32;;;;;;;0.70;0.65;;;;;;;;;;5031417;28;20065;-79
2022/12/28 13:59:01;;;;;;;0.50;0.50;;;;;;;;;;5032927;28;20038;-79
2022/12/28 14:01:29;;;;;;;0.45;0.40;;;;;;;;;;5023905;28;21761;-80
2022/12/28 14:04:03;;;;;;;0.40;0.40;;;;;;;;;;5031131;28;20549;-75
2022/12/28 14:06:29;;;;;;;1.10;0.50;;;;;;;;;;5029579;28;20108;-80
2022/12/28 14:08:55;;;;;;;3.08;0.75;;;;;;;;;;5040136;28;20104;-77
2022/12/28 14:11:21;;;;;;;0.60;0.50;;;;;;;;;;5024692;28;20030;-76
2022/12/28 14:13:47;;;;;;;2.53;0.75;;;;;;;;;;5028079;28;20087;-75
2022/12/28 14:16:14;;;;;;;0.93;0.57;;;;;;;;;;5032392;28;20048;-78
2022/12/28 14:18:40;;;;;;;0.70;0.60;;;;;;;;;;5032175;28;20447;-80
2022/12/28 14:21:06;;;;;;;0.55;0.47;;;;;;;;;;5028720;28;20021;-79
2022/12/28 14:23:34;;;;;;;0.32;0.32;;;;;;;;;;5039073;28;20078;-82
2022/12/28 14:26:10;;;;;;;0.80;0.60;;;;;;;;;;5039729;28;20022;-82
2022/12/28 14:28:40;;;;;;;0.60;0.60;;;;;;;;;;5030535;28;20021;-79
2022/12/28 14:31:08;;;;;;;6.70;2.40;;;;;;;;;;5032954;28;20120;-80
2022/12/28 14:33:36;;;;;;;3.15;1.92;;;;;;;;;;5030905;28;20057;-78
2022/12/28 14:36:04;;;;;;;11.85;4.75;;;;;;;;;;5031942;28;20033;-76
2022/12/28 14:38:34;;;;;;;20.27;12.02;;;;;;;;;;5031438;28;20063;-78
2022/12/28 14:41:02;;;;;;;62.65;31.50;;;;;;;;;;5033725;28;20021;-79
2022/12/28 14:43:29;;;;;;;48.20;25.27;;;;;;;;;;5030786;28;20040;-79
2022/12/28 14:45:55;;;;;;;59.75;28.45;;;;;;;;;;5030160;28;20026;-80
2022/12/28 14:48:23;;;;;;;50.50;24.25;;;;;;;;;;5023034;28;20052;-77
2022/12/28 14:50:59;;;;;;;51.75;24.85;;;;;;;;;;5030691;28;20266;-77
2022/12/28 14:53:25;;;;;;;71.13;34.55;;;;;;;;;;5033078;28;20086;-80
2022/12/28 14:56:26;;;;;;;68.70;34.83;;;;;;;;;;5024501;28;20026;-80
2022/12/28 14:58:54;;;;;;;71.90;35.00;;;;;;;;;;5061894;28;20070;-79
2022/12/28 15:01:21;;;;;;;63.47;31.98;;;;;;;;;;5034775;28;20044;-83
2022/12/28 15:03:57;;;;;;;62.83;33.17;;;;;;;;;;5029995;28;20098;-80
2022/12/28 15:06:27;;;;;;;68.57;32.83;;;;;;;;;;5027550;28;20382;-83
2022/12/28 15:08:55;;;;;;;95.88;46.72;;;;;;;;;;5025640;28;20032;-83
2022/12/28 15:11:22;;;;;;;74.25;39.72;;;;;;;;;;5029506;28;20088;-82
2022/12/28 15:13:48;;;;;;;81.57;45.45;;;;;;;;;;5025430;28;20052;-81
2022/12/28 15:16:15;;;;;;;89.72;44.08;;;;;;;;;;5027794;28;20203;-85
2022/12/28 15:18:44;;;;;;;75.45;39.08;;;;;;;;;;5030014;28;20036;-84
2022/12/28 15:21:17;;;;;;;55.95;31.05;;;;;;;;;;5028885;28;20550;-83